createdAt,value
2022-08-30T00:01:14.316Z,21.86
2022-08-30T00:03:46.839Z,21.82
2022-08-30T00:06:16.578Z,21.81
2022-08-30T00:08:45.053Z,21.77
2022-08-30T00:11:19.199Z,21.72
2022-08-30T00:13:46.487Z,21.67
2022-08-30T00:16:13.818Z,21.64
2022-08-30T00:18:40.934Z,21.62
2022-08-30T00:21:09.167Z,21.60
2022-08-30T00:23:36.365Z,21.57
2022-08-30T00:26:04.640Z,21.53
2022-08-30T00:28:33.850Z,21.50
2022-08-30T00:31:02.373Z,21.47
2022-08-30T00:33:29.674Z,21.45
2022-08-30T00:35:56.866Z,21.43
2022-08-30T00:38:24.175Z,21.40
2022-08-30T00:40:52.437Z,21.37
2022-08-30T00:43:29.147Z,21.35
2022-08-30T00:45:56.530Z,21.32
2022-08-30T00:48:23.622Z,21.29
2022-08-30T00:51:01.200Z,21.28
2022-08-30T00:53:39.553Z,21.25
2022-08-30T00:56:07.187Z,21.22
2022-08-30T00:58:42.793Z,21.21
2022-08-30T01:01:10.475Z,21.16
2022-08-30T01:03:39.459Z,21.17
2022-08-30T01:06:07.845Z,21.14
2022-08-30T01:08:35.280Z,21.12
2022-08-30T01:11:03.702Z,21.12
2022-08-30T01:13:34.486Z,21.09
2022-08-30T01:16:02.626Z,21.08
2022-08-30T01:18:31.985Z,21.06
2022-08-30T01:21:08.366Z,21.03
2022-08-30T01:23:39.508Z,21.02
2022-08-30T01:26:07.582Z,20.99
2022-08-30T01:28:35.176Z,20.97
2022-08-30T01:31:02.098Z,20.95
2022-08-30T01:33:29.569Z,20.92
2022-08-30T01:36:07.228Z,20.90
2022-08-30T01:38:48.575Z,20.88
2022-08-30T01:41:30.090Z,20.84
2022-08-30T01:44:00.980Z,20.82
2022-08-30T01:46:37.048Z,20.80
2022-08-30T01:49:09.731Z,20.78
2022-08-30T01:51:37.742Z,20.75
2022-08-30T01:54:05.505Z,20.73
2022-08-30T01:56:32.299Z,20.69
2022-08-30T01:59:02.855Z,20.65
2022-08-30T02:01:33.908Z,20.61
2022-08-30T02:04:00.816Z,20.59
2022-08-30T02:06:27.905Z,20.57
2022-08-30T02:08:54.970Z,20.56
2022-08-30T02:11:21.894Z,20.50
2022-08-30T02:13:48.893Z,20.49
2022-08-30T02:16:22.695Z,20.47
2022-08-30T02:18:51.334Z,20.46
2022-08-30T02:21:18.910Z,20.45
2022-08-30T02:23:45.789Z,20.45
2022-08-30T02:26:13.723Z,20.45
2022-08-30T02:28:42.779Z,20.46
2022-08-30T02:31:19.508Z,20.44
2022-08-30T02:33:50.259Z,20.43
2022-08-30T02:36:17.887Z,20.41
2022-08-30T02:38:45.130Z,20.34
2022-08-30T02:41:12.116Z,20.30
2022-08-30T02:43:38.947Z,20.25
2022-08-30T02:46:06.474Z,20.22
2022-08-30T02:48:34.035Z,20.20
2022-08-30T02:51:09.527Z,20.18
2022-08-30T02:53:43.617Z,20.17
2022-08-30T02:56:12.536Z,20.16
2022-08-30T02:58:42.257Z,20.16
2022-08-30T03:01:12.248Z,20.12
2022-08-30T03:03:40.993Z,20.11
2022-08-30T03:06:08.212Z,20.09
2022-08-30T03:08:35.016Z,20.07
2022-08-30T03:11:02.638Z,20.06
2022-08-30T03:13:29.727Z,20.05
2022-08-30T03:15:56.851Z,20.04
2022-08-30T03:18:25.250Z,20.03
2022-08-30T03:20:54.070Z,20.02
2022-08-30T03:23:22.419Z,20.03
2022-08-30T03:25:49.296Z,20.05
2022-08-30T03:28:16.088Z,20.07
2022-08-30T03:30:42.874Z,20.13
2022-08-30T03:33:09.757Z,20.16
2022-08-30T03:35:38.291Z,20.19
2022-08-30T03:38:05.757Z,20.21
2022-08-30T03:40:32.610Z,20.23
2022-08-30T03:42:59.444Z,20.23
2022-08-30T03:45:27.603Z,20.23
2022-08-30T03:47:54.417Z,20.21
2022-08-30T03:50:21.210Z,20.20
2022-08-30T03:52:48.872Z,20.17
2022-08-30T03:55:15.724Z,20.17
2022-08-30T03:57:43.876Z,20.18
2022-08-30T04:00:13.355Z,20.20
2022-08-30T04:02:41.660Z,20.19
2022-08-30T04:05:10.058Z,20.20
2022-08-30T04:07:37.344Z,20.21
2022-08-30T04:10:07.790Z,20.20
2022-08-30T04:12:34.686Z,20.16
2022-08-30T04:15:01.716Z,20.14
2022-08-30T04:17:28.578Z,20.13
2022-08-30T04:19:55.412Z,20.14
2022-08-30T04:22:22.204Z,20.15
2022-08-30T04:24:49.001Z,20.16
2022-08-30T04:27:15.836Z,20.18
2022-08-30T04:29:43.767Z,20.17
2022-08-30T04:32:10.582Z,20.15
2022-08-30T04:34:37.392Z,20.15
2022-08-30T04:37:04.268Z,20.14
2022-08-30T04:39:31.148Z,20.14
2022-08-30T04:41:58.706Z,20.13
2022-08-30T04:44:27.394Z,20.15
2022-08-30T04:46:54.332Z,20.15
2022-08-30T04:49:21.620Z,20.16
2022-08-30T04:51:48.662Z,20.17
2022-08-30T04:54:15.490Z,20.20
2022-08-30T04:56:43.623Z,20.20
2022-08-30T04:59:10.437Z,20.20
2022-08-30T05:01:45.769Z,20.22
2022-08-30T05:04:14.514Z,20.20
2022-08-30T05:06:42.328Z,20.20
2022-08-30T05:09:09.122Z,20.22
2022-08-30T05:11:36.877Z,20.24
2022-08-30T05:14:03.665Z,20.25
2022-08-30T05:16:30.560Z,20.28
2022-08-30T05:18:57.968Z,20.29
2022-08-30T05:21:27.936Z,20.31
2022-08-30T05:23:57.815Z,20.30
2022-08-30T05:26:29.198Z,20.31
2022-08-30T05:28:56.302Z,20.32
2022-08-30T05:31:30.216Z,20.35
2022-08-30T05:33:57.355Z,20.36
2022-08-30T05:36:28.271Z,20.38
2022-08-30T05:38:55.760Z,20.41
2022-08-30T05:41:26.617Z,20.45
2022-08-30T05:43:56.393Z,20.46
2022-08-30T05:46:23.722Z,20.46
2022-08-30T05:48:51.485Z,20.47
2022-08-30T05:51:22.519Z,20.50
2022-08-30T05:53:51.150Z,20.51
2022-08-30T05:56:25.261Z,20.53
2022-08-30T05:58:54.020Z,20.54
2022-08-30T06:01:24.845Z,20.54
2022-08-30T06:03:53.482Z,20.52
2022-08-30T06:06:20.366Z,20.52
2022-08-30T06:08:48.916Z,20.52
2022-08-30T06:11:19.524Z,20.54
2022-08-30T06:13:47.902Z,20.57
2022-08-30T06:16:17.940Z,20.59
2022-08-30T06:18:45.112Z,20.64
2022-08-30T06:21:36.468Z,20.66
2022-08-30T06:24:06.080Z,20.67
2022-08-30T06:26:37.395Z,20.69
2022-08-30T06:29:04.698Z,20.69
2022-08-30T06:31:33.330Z,20.70
2022-08-30T06:34:00.340Z,20.70
2022-08-30T06:36:27.123Z,20.68
2022-08-30T06:38:56.412Z,20.69
2022-08-30T06:41:27.237Z,20.68
2022-08-30T06:43:55.681Z,20.67
2022-08-30T06:46:29.658Z,20.68
2022-08-30T06:48:57.286Z,20.69
2022-08-30T06:51:28.051Z,20.71
2022-08-30T06:53:55.110Z,20.71
2022-08-30T06:56:23.017Z,20.72
2022-08-30T06:58:50.434Z,20.75
2022-08-30T07:01:26.980Z,20.79
2022-08-30T07:03:55.406Z,20.83
2022-08-30T07:06:25.053Z,20.87
2022-08-30T07:08:55.958Z,20.88
2022-08-30T07:11:36.082Z,20.89
2022-08-30T07:14:03.946Z,20.90
2022-08-30T07:16:30.884Z,20.90
2022-08-30T07:18:58.679Z,20.91
2022-08-30T07:21:32.382Z,20.97
2022-08-30T07:24:00.149Z,20.99
2022-08-30T07:26:33.540Z,21.04
2022-08-30T07:29:02.246Z,21.05
2022-08-30T07:31:29.523Z,21.08
2022-08-30T07:33:57.063Z,21.08
2022-08-30T07:36:24.702Z,21.11
2022-08-30T07:38:52.307Z,21.11
2022-08-30T07:41:27.746Z,21.14
2022-08-30T07:43:55.749Z,21.15
2022-08-30T07:46:23.895Z,21.19
2022-08-30T07:48:51.988Z,21.23
2022-08-30T07:51:23.037Z,21.27
2022-08-30T07:53:49.966Z,21.28
2022-08-30T07:56:16.994Z,21.28
2022-08-30T07:58:43.998Z,21.30
2022-08-30T08:01:12.887Z,21.32
2022-08-30T08:03:42.289Z,21.35
2022-08-30T08:06:13.069Z,21.35
2022-08-30T08:08:41.496Z,21.36
2022-08-30T08:11:10.179Z,21.37
2022-08-30T08:13:53.214Z,21.40
2022-08-30T08:16:24.989Z,21.42
2022-08-30T08:18:53.391Z,21.46
2022-08-30T08:21:21.808Z,21.44
2022-08-30T08:23:48.653Z,21.46
2022-08-30T08:26:15.791Z,21.46
2022-08-30T08:28:42.916Z,21.47
2022-08-30T08:31:17.921Z,21.46
2022-08-30T08:33:45.087Z,21.46
2022-08-30T08:36:12.024Z,21.48
2022-08-30T08:38:39.212Z,21.47
2022-08-30T08:41:40.816Z,21.46
2022-08-30T08:44:18.186Z,21.45
2022-08-30T08:47:08.382Z,21.46
2022-08-30T08:49:36.046Z,21.49
2022-08-30T08:52:24.183Z,21.51
2022-08-30T08:55:05.193Z,21.54
2022-08-30T08:57:36.085Z,21.55
2022-08-30T09:00:07.368Z,21.56
2022-08-30T09:03:00.218Z,21.57
2022-08-30T09:05:34.114Z,21.60
2022-08-30T09:08:09.758Z,21.68
2022-08-30T09:10:52.074Z,21.75
2022-08-30T09:13:20.635Z,21.88
2022-08-30T09:15:54.889Z,21.99
2022-08-30T09:18:45.391Z,22.10
2022-08-30T09:21:15.138Z,22.22
2022-08-30T09:23:59.409Z,22.43
2022-08-30T09:26:37.728Z,22.62
2022-08-30T09:29:05.814Z,22.75
2022-08-30T09:32:01.298Z,22.93
2022-08-30T09:34:37.707Z,23.05
2022-08-30T09:37:24.055Z,23.12
2022-08-30T09:39:50.881Z,23.20
2022-08-30T09:42:26.008Z,23.32
2022-08-30T09:45:10.219Z,23.41
2022-08-30T09:50:16.438Z,23.71
2022-08-30T09:53:23.372Z,23.87
2022-08-30T09:56:20.897Z,24.01
2022-08-30T09:59:20.436Z,24.06
2022-08-30T10:01:53.525Z,24.10
2022-08-30T10:04:40.414Z,24.15
2022-08-30T10:07:54.179Z,24.17
2022-08-30T10:10:49.453Z,24.27
2022-08-30T10:13:42.702Z,24.40
2022-08-30T10:16:26.746Z,24.45
2022-08-30T10:19:18.867Z,24.40
2022-08-30T10:22:20.014Z,24.34
2022-08-30T10:24:55.364Z,24.38
2022-08-30T10:27:59.765Z,24.39
2022-08-30T10:30:29.455Z,24.44
2022-08-30T10:33:08.768Z,24.51
2022-08-30T10:35:50.362Z,24.58
2022-08-30T10:38:38.115Z,24.67
2022-08-30T10:41:39.568Z,24.78
2022-08-30T10:44:20.195Z,24.98
2022-08-30T10:47:10.181Z,25.11
2022-08-30T10:49:45.788Z,25.19
2022-08-30T10:52:51.442Z,25.27
2022-08-30T10:55:28.994Z,25.32
2022-08-30T10:58:00.985Z,25.32
2022-08-30T11:00:45.567Z,25.34
2022-08-30T11:03:47.043Z,25.35
2022-08-30T11:06:32.120Z,25.38
2022-08-30T11:09:40.666Z,25.40
2022-08-30T11:12:28.941Z,25.36
2022-08-30T11:14:55.866Z,25.29
2022-08-30T11:17:40.123Z,25.23
2022-08-30T11:20:56.181Z,25.13
2022-08-30T11:23:36.319Z,25.13
2022-08-30T11:26:20.544Z,25.14
2022-08-30T11:28:48.231Z,25.14
2022-08-30T11:31:20.938Z,25.15
2022-08-30T11:33:53.705Z,25.17
2022-08-30T11:36:38.685Z,25.21
2022-08-30T11:39:53.820Z,25.22
2022-08-30T11:45:24.719Z,25.33
2022-08-30T11:47:59.539Z,25.36
2022-08-30T11:50:50.826Z,25.43
2022-08-30T11:53:33.739Z,25.50
2022-08-30T11:56:28.823Z,25.56
2022-08-30T11:59:02.203Z,25.55
2022-08-30T12:01:50.640Z,25.56
2022-08-30T12:04:19.597Z,25.62
2022-08-30T12:06:54.432Z,25.69
2022-08-30T12:09:23.994Z,25.75
2022-08-30T12:12:09.463Z,25.85
2022-08-30T12:14:51.601Z,25.97
2022-08-30T12:18:16.647Z,26.07
2022-08-30T12:20:48.767Z,26.20
2022-08-30T12:23:33.192Z,26.29
2022-08-30T12:26:25.061Z,26.38
2022-08-30T12:29:07.493Z,26.46
2022-08-30T12:31:40.710Z,26.51
2022-08-30T12:34:07.640Z,26.58
2022-08-30T12:36:40.644Z,26.68
2022-08-30T12:39:17.504Z,26.77
2022-08-30T12:41:45.093Z,26.86
2022-08-30T12:44:24.386Z,26.95
2022-08-30T12:46:59.005Z,27.06
2022-08-30T12:49:28.619Z,27.16
2022-08-30T12:51:56.415Z,27.22
2022-08-30T12:54:28.292Z,27.23
2022-08-30T12:59:58.525Z,27.09
2022-08-30T13:02:47.841Z,27.02
2022-08-30T13:05:48.459Z,26.95
2022-08-30T13:08:27.828Z,26.88
2022-08-30T13:11:10.376Z,26.84
2022-08-30T13:13:44.392Z,26.90
2022-08-30T13:16:20.614Z,27.02
2022-08-30T13:18:50.081Z,27.13
2022-08-30T13:21:28.885Z,27.23
2022-08-30T13:24:06.079Z,27.34
2022-08-30T13:26:35.283Z,27.40
2022-08-30T13:29:08.743Z,27.51
2022-08-30T13:31:37.573Z,27.51
2022-08-30T13:34:04.976Z,27.50
2022-08-30T13:36:35.383Z,27.46
2022-08-30T13:39:02.587Z,27.42
2022-08-30T13:41:34.274Z,27.39
2022-08-30T13:44:13.277Z,27.37
2022-08-30T13:46:43.288Z,27.37
2022-08-30T13:52:20.354Z,27.62
2022-08-30T13:54:56.452Z,27.75
2022-08-30T14:00:17.449Z,27.94
2022-08-30T14:02:51.537Z,28.02
2022-08-30T14:11:05.017Z,28.27
2022-08-30T14:13:31.864Z,28.35
2022-08-30T14:18:47.599Z,28.48
2022-08-30T14:21:16.178Z,28.57
2022-08-30T14:23:43.192Z,28.60
2022-08-30T14:26:14.039Z,28.60
2022-08-30T14:28:44.773Z,28.60
2022-08-30T14:31:12.012Z,28.65
2022-08-30T14:33:40.138Z,28.71
2022-08-30T14:36:12.504Z,28.77
2022-08-30T14:38:42.741Z,28.81
2022-08-30T14:41:10.672Z,28.89
2022-08-30T14:43:39.576Z,28.97
2022-08-30T14:46:06.607Z,29.03
2022-08-30T14:48:33.395Z,29.10
2022-08-30T14:51:01.604Z,29.10
2022-08-30T14:53:28.340Z,29.05
2022-08-30T14:55:55.077Z,28.94
2022-08-30T14:58:21.833Z,28.82
2022-08-30T15:00:52.705Z,28.64
2022-08-30T15:03:19.551Z,28.47
2022-08-30T15:05:50.631Z,28.29
2022-08-30T15:08:19.902Z,28.12
2022-08-30T15:10:47.395Z,27.97
2022-08-30T15:13:14.410Z,27.85
2022-08-30T15:15:42.691Z,27.72
2022-08-30T15:18:09.896Z,27.60
2022-08-30T15:20:37.493Z,27.53
2022-08-30T15:23:05.018Z,27.46
2022-08-30T15:25:31.812Z,27.40
2022-08-30T15:27:58.574Z,27.37
2022-08-30T15:30:25.370Z,27.36
2022-08-30T15:32:52.107Z,27.36
2022-08-30T15:35:18.852Z,27.36
2022-08-30T15:37:45.589Z,27.38
2022-08-30T15:40:12.761Z,27.37
2022-08-30T15:42:39.788Z,27.34
2022-08-30T15:45:09.600Z,27.28
2022-08-30T15:47:36.321Z,27.25
2022-08-30T15:50:06.550Z,27.21
2022-08-30T15:52:33.584Z,27.16
2022-08-30T15:55:00.331Z,27.13
2022-08-30T15:57:27.069Z,27.10
2022-08-30T15:59:54.577Z,27.08
2022-08-30T16:02:21.830Z,27.06
2022-08-30T16:04:54.522Z,27.04
2022-08-30T16:07:21.257Z,27.04
2022-08-30T16:09:48.025Z,27.02
2022-08-30T16:12:23.822Z,27.03
2022-08-30T16:14:51.264Z,27.03
2022-08-30T16:17:18.217Z,27.02
2022-08-30T16:19:45.088Z,27.00
2022-08-30T16:22:11.851Z,26.98
2022-08-30T16:24:39.141Z,26.96
2022-08-30T16:27:05.970Z,26.97
2022-08-30T16:29:35.694Z,26.97
2022-08-30T16:32:02.504Z,26.98
2022-08-30T16:34:29.305Z,27.01
2022-08-30T16:36:56.091Z,27.02
2022-08-30T16:39:22.815Z,27.03
2022-08-30T16:41:49.576Z,27.03
2022-08-30T16:44:17.776Z,27.01
2022-08-30T16:46:53.437Z,26.99
2022-08-30T16:49:22.612Z,26.96
2022-08-30T16:51:49.857Z,26.92
2022-08-30T16:54:17.523Z,26.87
2022-08-30T16:56:45.724Z,26.83
2022-08-30T16:59:13.713Z,26.81
2022-08-30T17:01:42.416Z,26.78
2022-08-30T17:04:10.564Z,26.74
2022-08-30T17:06:37.407Z,26.71
2022-08-30T17:09:05.354Z,26.68
2022-08-30T17:11:32.847Z,26.62
2022-08-30T17:13:59.673Z,26.60
2022-08-30T17:16:29.884Z,26.56
2022-08-30T17:19:00.035Z,26.49
2022-08-30T17:21:30.946Z,26.44
2022-08-30T17:24:02.629Z,26.40
2022-08-30T17:26:31.420Z,26.35
2022-08-30T17:28:58.331Z,26.28
2022-08-30T17:31:27.683Z,26.22
2022-08-30T17:34:01.222Z,26.15
2022-08-30T17:36:31.127Z,26.08
2022-08-30T17:38:57.864Z,26.03
2022-08-30T17:41:24.601Z,25.96
2022-08-30T17:43:51.577Z,25.91
2022-08-30T17:46:19.432Z,25.86
2022-08-30T17:48:46.464Z,25.80
2022-08-30T17:51:13.224Z,25.74
2022-08-30T17:53:40.104Z,25.69
2022-08-30T17:56:09.693Z,25.66
2022-08-30T17:58:36.576Z,25.62
2022-08-30T18:01:11.579Z,25.57
2022-08-30T18:03:39.069Z,25.52
2022-08-30T18:06:06.896Z,25.48
2022-08-30T18:08:35.032Z,25.44
2022-08-30T18:11:03.679Z,25.40
2022-08-30T18:13:33.005Z,25.36
2022-08-30T18:16:02.114Z,25.31
2022-08-30T18:18:29.427Z,25.27
2022-08-30T18:20:56.509Z,25.23
2022-08-30T18:23:24.098Z,25.19
2022-08-30T18:25:59.833Z,25.16
2022-08-30T18:28:27.035Z,25.11
2022-08-30T18:30:56.664Z,25.07
2022-08-30T18:33:24.885Z,25.03
2022-08-30T18:35:51.675Z,24.98
2022-08-30T18:38:19.101Z,24.93
2022-08-30T18:40:51.819Z,24.88
2022-08-30T18:43:18.639Z,24.81
2022-08-30T18:45:51.628Z,24.79
2022-08-30T18:48:19.252Z,24.76
2022-08-30T18:50:46.727Z,24.73
2022-08-30T18:53:14.516Z,24.70
2022-08-30T18:55:56.509Z,24.67
2022-08-30T18:58:23.302Z,24.64
2022-08-30T19:00:50.038Z,24.59
2022-08-30T19:03:18.353Z,24.56
2022-08-30T19:05:46.290Z,24.51
2022-08-30T19:08:13.744Z,24.49
2022-08-30T19:10:41.039Z,24.45
2022-08-30T19:13:08.121Z,24.43
2022-08-30T19:15:35.385Z,24.39
2022-08-30T19:18:03.096Z,24.36
2022-08-30T19:20:43.921Z,24.32
2022-08-30T19:23:10.672Z,24.29
2022-08-30T19:25:39.523Z,24.26
2022-08-30T19:28:06.272Z,24.24
2022-08-30T19:30:33.154Z,24.19
2022-08-30T19:32:59.891Z,24.16
2022-08-30T19:35:26.934Z,24.13
2022-08-30T19:37:57.475Z,24.09
2022-08-30T19:40:24.288Z,24.05
2022-08-30T19:42:52.331Z,24.02
2022-08-30T19:45:21.547Z,23.98
2022-08-30T19:47:49.357Z,23.96
2022-08-30T19:50:16.966Z,23.93
2022-08-30T19:52:47.300Z,23.92
2022-08-30T19:55:17.972Z,23.90
2022-08-30T19:57:50.577Z,23.86
2022-08-30T20:00:17.744Z,23.83
2022-08-30T20:02:44.493Z,23.81
2022-08-30T20:05:17.316Z,23.78
2022-08-30T20:07:44.074Z,23.74
2022-08-30T20:10:12.779Z,23.72
2022-08-30T20:12:45.534Z,23.69
2022-08-30T20:15:14.566Z,23.66
2022-08-30T20:18:02.554Z,23.62
2022-08-30T20:20:29.928Z,23.58
2022-08-30T20:22:56.805Z,23.55
2022-08-30T20:25:24.126Z,23.49
2022-08-30T20:27:50.884Z,23.47
2022-08-30T20:30:17.892Z,23.43
2022-08-30T20:32:46.603Z,23.42
2022-08-30T20:35:16.000Z,23.39
2022-08-30T20:37:43.330Z,23.38
2022-08-30T20:40:15.520Z,23.34
2022-08-30T20:42:46.602Z,23.32
2022-08-30T20:45:15.982Z,23.30
2022-08-30T20:47:43.420Z,23.28
2022-08-30T20:50:15.263Z,23.27
2022-08-30T20:52:42.245Z,23.24
2022-08-30T20:55:10.166Z,23.18
2022-08-30T20:57:37.127Z,23.16
2022-08-30T21:00:06.575Z,23.12
2022-08-30T21:02:34.201Z,23.11
2022-08-30T21:05:02.621Z,23.08
2022-08-30T21:07:29.358Z,23.04
2022-08-30T21:09:56.672Z,23.01
2022-08-30T21:12:24.161Z,22.98
2022-08-30T21:14:50.955Z,22.94
2022-08-30T21:17:17.888Z,22.91
2022-08-30T21:19:44.600Z,22.87
2022-08-30T21:22:11.527Z,22.83
2022-08-30T21:24:38.263Z,22.80
2022-08-30T21:27:05.092Z,22.77
2022-08-30T21:29:33.262Z,22.75
2022-08-30T21:32:00.372Z,22.71
2022-08-30T21:34:27.234Z,22.67
2022-08-30T21:36:53.985Z,22.66
2022-08-30T21:39:26.378Z,22.63
2022-08-30T21:41:56.797Z,22.60
2022-08-30T21:44:26.480Z,22.57
2022-08-30T21:46:53.692Z,22.54
2022-08-30T21:49:23.119Z,22.50
2022-08-30T21:51:51.225Z,22.48
2022-08-30T21:54:18.588Z,22.46
2022-08-30T21:56:46.880Z,22.42
2022-08-30T21:59:14.189Z,22.41
2022-08-30T22:01:43.196Z,22.40
2022-08-30T22:04:10.944Z,22.40
2022-08-30T22:06:39.365Z,22.39
2022-08-30T22:09:09.273Z,22.39
2022-08-30T22:11:36.796Z,22.40
2022-08-30T22:14:05.003Z,22.40
2022-08-30T22:16:31.790Z,22.41
2022-08-30T22:18:58.616Z,22.38
2022-08-30T22:21:27.705Z,22.37
2022-08-30T22:23:55.060Z,22.38
2022-08-30T22:26:22.664Z,22.37
2022-08-30T22:28:50.705Z,22.36
2022-08-30T22:31:18.412Z,22.37
2022-08-30T22:33:46.922Z,22.35
2022-08-30T22:36:17.125Z,22.33
2022-08-30T22:38:44.168Z,22.35
2022-08-30T22:41:14.611Z,22.36
2022-08-30T22:43:41.421Z,22.36
2022-08-30T22:46:08.453Z,22.36
2022-08-30T22:48:36.381Z,22.36
2022-08-30T22:51:03.305Z,22.35
2022-08-30T22:53:30.053Z,22.37
2022-08-30T22:55:56.900Z,22.34
2022-08-30T22:58:23.921Z,22.31
2022-08-30T23:00:54.828Z,22.31
2022-08-30T23:03:22.296Z,22.30
2022-08-30T23:05:49.011Z,22.27
2022-08-30T23:08:15.746Z,22.25
2022-08-30T23:10:44.237Z,22.22
2022-08-30T23:13:11.045Z,22.20
2022-08-30T23:15:37.839Z,22.16
2022-08-30T23:18:04.625Z,22.13
2022-08-30T23:20:31.366Z,22.10
2022-08-30T23:22:58.065Z,22.08
2022-08-30T23:25:46.181Z,22.07
2022-08-30T23:28:38.624Z,22.07
2022-08-30T23:31:35.622Z,22.05
2022-08-30T23:34:20.903Z,22.03
2022-08-30T23:37:06.226Z,22.01
2022-08-30T23:39:51.573Z,21.98
2022-08-30T23:42:36.961Z,21.95
2022-08-30T23:45:22.926Z,21.95
2022-08-30T23:48:08.318Z,21.95
2022-08-30T23:50:53.734Z,21.95
2022-08-30T23:53:39.082Z,21.94
2022-08-30T23:56:30.064Z,21.94
2022-08-30T23:59:15.461Z,21.91
